createdAt,value
2022-11-29T00:01:26.061Z,14.80
2022-11-29T00:03:53.433Z,14.80
2022-11-29T00:06:22.267Z,14.40
2022-11-29T00:08:49.469Z,16.53
2022-11-29T00:11:40.629Z,15.30
2022-11-29T00:14:09.173Z,15.57
2022-11-29T00:16:36.089Z,15.03
2022-11-29T00:19:02.879Z,15.07
2022-11-29T00:21:29.500Z,15.07
2022-11-29T00:23:55.991Z,14.83
2022-11-29T00:26:22.512Z,15.20
2022-11-29T00:28:48.942Z,13.57
2022-11-29T00:31:15.368Z,12.93
2022-11-29T00:33:41.824Z,13.17
2022-11-29T00:36:08.469Z,13.00
2022-11-29T00:38:34.941Z,12.60
2022-11-29T00:41:01.376Z,11.77
2022-11-29T00:43:27.830Z,11.47
2022-11-29T00:45:54.369Z,11.47
2022-11-29T00:48:20.892Z,12.53
2022-11-29T00:50:47.387Z,12.20
2022-11-29T00:53:13.921Z,12.60
2022-11-29T00:55:40.644Z,13.07
2022-11-29T00:58:07.440Z,13.67
2022-11-29T01:00:33.881Z,13.93
2022-11-29T01:03:00.296Z,13.87
2022-11-29T01:05:26.696Z,13.83
2022-11-29T01:07:53.369Z,14.60
2022-11-29T01:10:20.109Z,14.37
2022-11-29T01:12:46.570Z,14.93
2022-11-29T01:15:13.153Z,15.10
2022-11-29T01:17:40.004Z,14.20
2022-11-29T01:20:08.917Z,13.13
2022-11-29T01:22:35.958Z,13.43
2022-11-29T01:25:02.681Z,11.23
2022-11-29T01:27:29.494Z,10.37
2022-11-29T01:29:55.932Z,9.50
2022-11-29T01:32:22.488Z,9.13
2022-11-29T01:34:48.936Z,9.00
2022-11-29T01:37:15.532Z,9.20
2022-11-29T01:39:42.551Z,10.17
2022-11-29T01:42:13.628Z,10.20
2022-11-29T01:44:39.977Z,10.90
2022-11-29T01:47:06.520Z,11.60
2022-11-29T01:49:37.792Z,12.53
2022-11-29T01:52:26.493Z,11.60
2022-11-29T01:54:58.262Z,12.53
2022-11-29T01:57:26.101Z,11.87
2022-11-29T01:59:58.038Z,11.47
2022-11-29T02:02:35.373Z,10.17
2022-11-29T02:05:03.505Z,10.10
2022-11-29T02:07:29.923Z,9.90
2022-11-29T02:09:56.493Z,9.63
2022-11-29T02:12:41.575Z,9.27
2022-11-29T02:15:27.649Z,9.57
2022-11-29T02:18:09.237Z,10.07
2022-11-29T02:21:09.835Z,10.60
2022-11-29T02:23:54.660Z,9.27
2022-11-29T02:27:11.731Z,9.30
2022-11-29T02:29:47.360Z,10.60
2022-11-29T02:32:38.926Z,11.13
2022-11-29T02:35:18.040Z,11.17
2022-11-29T02:37:53.660Z,10.27
2022-11-29T02:40:29.096Z,10.57
2022-11-29T02:43:20.752Z,9.67
2022-11-29T02:45:51.351Z,10.50
2022-11-29T02:48:26.041Z,10.07
2022-11-29T02:51:04.540Z,8.10
2022-11-29T02:53:42.064Z,7.77
2022-11-29T02:56:26.085Z,7.60
2022-11-29T02:59:07.390Z,7.10
2022-11-29T03:01:47.128Z,7.13
2022-11-29T03:04:39.337Z,6.87
2022-11-29T03:07:48.728Z,7.00
2022-11-29T03:10:21.074Z,6.77
2022-11-29T03:12:50.202Z,7.00
2022-11-29T03:15:30.393Z,6.73
2022-11-29T03:18:14.665Z,7.13
2022-11-29T03:21:06.160Z,6.53
2022-11-29T03:23:39.313Z,7.00
2022-11-29T03:26:15.268Z,6.80
2022-11-29T03:28:54.979Z,7.03
2022-11-29T03:31:29.985Z,6.83
2022-11-29T03:34:32.315Z,7.00
2022-11-29T03:37:19.963Z,6.80
2022-11-29T03:40:02.126Z,6.80
2022-11-29T03:42:34.406Z,6.00
2022-11-29T03:45:24.901Z,6.03
2022-11-29T03:48:14.559Z,6.73
2022-11-29T03:50:52.395Z,6.10
2022-11-29T03:53:45.152Z,6.77
2022-11-29T03:56:30.827Z,6.30
2022-11-29T03:59:13.222Z,7.03
2022-11-29T04:02:06.961Z,6.57
2022-11-29T04:05:10.646Z,6.20
2022-11-29T04:08:01.745Z,7.00
2022-11-29T04:10:40.264Z,7.10
2022-11-29T04:13:30.188Z,7.00
2022-11-29T04:16:08.685Z,6.30
2022-11-29T04:18:56.624Z,7.03
2022-11-29T04:21:51.145Z,7.20
2022-11-29T04:24:55.389Z,7.00
2022-11-29T04:27:49.489Z,6.73
2022-11-29T04:30:23.830Z,6.90
2022-11-29T04:32:59.766Z,6.90
2022-11-29T04:35:56.084Z,6.87
2022-11-29T04:38:41.339Z,7.20
2022-11-29T04:41:26.469Z,6.93
2022-11-29T04:44:16.408Z,6.77
2022-11-29T04:46:51.781Z,6.90
2022-11-29T04:49:21.258Z,6.40
2022-11-29T04:52:14.719Z,6.77
2022-11-29T04:54:56.654Z,6.70
2022-11-29T04:57:49.204Z,6.97
2022-11-29T05:00:20.306Z,7.33
2022-11-29T05:02:58.911Z,7.43
2022-11-29T05:05:41.866Z,8.10
2022-11-29T05:08:16.577Z,7.30
2022-11-29T05:10:59.745Z,8.13
2022-11-29T05:13:42.864Z,8.20
2022-11-29T05:16:34.228Z,9.07
2022-11-29T05:19:16.293Z,8.43
2022-11-29T05:22:18.380Z,10.67
2022-11-29T05:24:50.562Z,11.00
2022-11-29T05:27:47.043Z,9.57
2022-11-29T05:30:20.394Z,8.07
2022-11-29T05:32:57.928Z,9.53
2022-11-29T05:35:51.941Z,8.37
2022-11-29T05:38:49.994Z,7.80
2022-11-29T05:41:44.451Z,8.10
2022-11-29T05:44:23.998Z,8.00
2022-11-29T05:47:00.657Z,7.20
2022-11-29T05:49:49.823Z,7.80
2022-11-29T05:52:19.384Z,7.27
2022-11-29T05:54:57.802Z,6.90
2022-11-29T05:57:58.641Z,6.80
2022-11-29T06:00:32.043Z,6.90
2022-11-29T06:03:14.024Z,7.90
2022-11-29T06:05:53.061Z,7.20
2022-11-29T06:08:44.130Z,7.67
2022-11-29T06:11:36.269Z,6.77
2022-11-29T06:14:13.576Z,7.17
2022-11-29T06:16:50.686Z,7.73
2022-11-29T06:19:32.510Z,7.40
2022-11-29T06:22:20.880Z,7.73
2022-11-29T06:25:23.103Z,6.77
2022-11-29T06:27:59.589Z,8.77
2022-11-29T06:30:46.140Z,9.83
2022-11-29T06:33:22.491Z,9.43
2022-11-29T06:36:13.654Z,10.97
2022-11-29T06:38:41.104Z,9.80
2022-11-29T06:41:14.570Z,10.20
2022-11-29T06:43:41.548Z,10.90
2022-11-29T06:46:36.359Z,10.20
2022-11-29T06:49:09.838Z,9.20
2022-11-29T06:51:48.104Z,12.03
2022-11-29T06:54:36.183Z,10.97
2022-11-29T06:57:18.851Z,10.17
2022-11-29T07:00:25.244Z,9.43
2022-11-29T07:03:19.797Z,9.03
2022-11-29T07:05:46.798Z,9.37
2022-11-29T07:08:15.531Z,8.20
2022-11-29T07:10:43.209Z,8.50
2022-11-29T07:13:15.890Z,9.03
2022-11-29T07:16:06.524Z,8.50
2022-11-29T07:18:55.584Z,8.40
2022-11-29T07:22:04.043Z,8.27
2022-11-29T07:24:49.342Z,8.67
2022-11-29T07:27:22.497Z,9.20
2022-11-29T07:30:14.029Z,8.87
2022-11-29T07:33:05.169Z,8.00
2022-11-29T07:36:01.561Z,7.57
2022-11-29T07:38:40.324Z,7.80
2022-11-29T07:41:27.372Z,8.60
2022-11-29T07:44:09.869Z,7.70
2022-11-29T07:46:36.365Z,7.57
2022-11-29T07:49:02.893Z,7.60
2022-11-29T07:51:29.398Z,8.37
2022-11-29T07:53:55.881Z,8.47
2022-11-29T07:56:22.370Z,8.73
2022-11-29T07:58:48.989Z,8.03
2022-11-29T08:01:15.562Z,8.13
2022-11-29T08:03:42.670Z,8.40
2022-11-29T08:06:09.298Z,8.50
2022-11-29T08:08:40.606Z,8.50
2022-11-29T08:11:11.387Z,9.10
2022-11-29T08:13:37.817Z,8.70
2022-11-29T08:16:04.545Z,9.17
2022-11-29T08:18:30.983Z,9.10
2022-11-29T08:20:57.465Z,10.80
2022-11-29T08:23:23.902Z,10.30
2022-11-29T08:25:50.355Z,10.73
2022-11-29T08:28:17.109Z,11.93
2022-11-29T08:30:43.580Z,11.20
2022-11-29T08:33:10.051Z,11.17
2022-11-29T08:35:36.510Z,11.43
2022-11-29T08:38:04.831Z,10.67
2022-11-29T08:40:31.457Z,9.70
2022-11-29T08:42:58.408Z,10.27
2022-11-29T08:45:25.000Z,9.00
2022-11-29T08:47:51.483Z,9.70
2022-11-29T08:50:18.309Z,9.53
2022-11-29T08:53:05.724Z,9.63
2022-11-29T08:55:40.051Z,9.63
2022-11-29T08:58:08.819Z,9.40
2022-11-29T09:00:35.647Z,9.53
2022-11-29T09:03:22.720Z,9.80
2022-11-29T09:05:49.510Z,9.57
2022-11-29T09:08:16.046Z,10.43
2022-11-29T09:10:43.023Z,10.17
2022-11-29T09:13:10.454Z,10.70
2022-11-29T09:15:38.285Z,10.43
2022-11-29T09:18:05.771Z,10.13
2022-11-29T09:20:33.198Z,9.70
2022-11-29T09:23:01.122Z,10.53
2022-11-29T09:25:27.825Z,10.60
2022-11-29T09:27:54.201Z,10.27
2022-11-29T09:30:23.812Z,10.67
2022-11-29T09:32:50.637Z,9.73
2022-11-29T09:35:17.436Z,10.57
2022-11-29T09:37:44.185Z,10.83
2022-11-29T09:40:22.761Z,10.30
2022-11-29T09:42:59.544Z,10.57
2022-11-29T09:45:35.830Z,10.60
2022-11-29T09:48:27.676Z,10.17
2022-11-29T09:51:18.493Z,9.60
2022-11-29T09:54:19.412Z,9.67
2022-11-29T09:56:49.966Z,10.23
2022-11-29T09:59:28.969Z,8.93
2022-11-29T10:02:05.812Z,9.27
2022-11-29T10:04:40.504Z,9.63
2022-11-29T10:07:12.563Z,9.90
2022-11-29T10:09:45.951Z,10.60
2022-11-29T10:12:17.137Z,10.00
2022-11-29T10:14:57.658Z,10.43
2022-11-29T10:17:34.307Z,9.70
2022-11-29T10:20:09.920Z,9.03
2022-11-29T10:22:49.541Z,9.27
2022-11-29T10:25:39.714Z,9.53
2022-11-29T10:28:13.833Z,10.27
2022-11-29T10:30:41.632Z,10.37
2022-11-29T10:33:19.021Z,10.17
2022-11-29T10:35:47.047Z,9.60
2022-11-29T10:38:30.253Z,9.70
2022-11-29T10:41:07.885Z,10.77
2022-11-29T10:43:34.915Z,10.60
2022-11-29T10:46:02.458Z,9.60
2022-11-29T10:48:32.921Z,10.20
2022-11-29T10:51:01.373Z,10.43
2022-11-29T10:53:32.792Z,10.30
2022-11-29T10:56:03.972Z,10.33
2022-11-29T10:58:32.774Z,9.50
2022-11-29T11:01:07.375Z,9.63
2022-11-29T11:04:05.141Z,9.50
2022-11-29T11:06:56.185Z,9.07
2022-11-29T11:09:38.253Z,9.37
2022-11-29T11:12:19.938Z,10.23
2022-11-29T11:14:47.239Z,9.17
2022-11-29T11:17:36.481Z,9.07
2022-11-29T11:20:08.636Z,9.30
2022-11-29T11:22:39.694Z,8.70
2022-11-29T11:25:30.180Z,9.20
2022-11-29T11:28:10.564Z,8.70
2022-11-29T11:30:37.193Z,8.23
2022-11-29T11:33:26.870Z,8.67
2022-11-29T11:36:19.554Z,8.73
2022-11-29T11:39:10.120Z,7.60
2022-11-29T11:42:00.418Z,8.67
2022-11-29T11:44:48.278Z,7.90
2022-11-29T11:47:30.837Z,7.33
2022-11-29T11:50:00.276Z,7.80
2022-11-29T11:52:30.746Z,8.00
2022-11-29T11:55:01.207Z,8.00
2022-11-29T11:57:28.529Z,8.10
2022-11-29T12:00:01.989Z,7.37
2022-11-29T12:02:40.630Z,7.53
2022-11-29T12:05:17.114Z,7.37
2022-11-29T12:10:40.316Z,7.43
2022-11-29T12:13:19.753Z,7.17
2022-11-29T12:15:49.696Z,7.80
2022-11-29T12:18:34.665Z,7.80
2022-11-29T12:21:14.149Z,7.30
2022-11-29T12:23:49.076Z,7.47
2022-11-29T12:26:55.519Z,6.77
2022-11-29T12:29:19.249Z,7.67
2022-11-29T12:32:30.478Z,6.90
2022-11-29T12:35:23.177Z,7.57
2022-11-29T12:37:56.499Z,6.97
2022-11-29T12:40:46.766Z,6.90
2022-11-29T12:43:39.129Z,7.87
2022-11-29T12:46:13.775Z,6.97
2022-11-29T12:48:46.971Z,7.80
2022-11-29T12:51:34.787Z,7.67
2022-11-29T12:54:35.431Z,6.90
2022-11-29T12:57:34.294Z,8.13
2022-11-29T13:00:11.967Z,9.07
2022-11-29T13:02:54.361Z,8.50
2022-11-29T13:05:20.902Z,8.20
2022-11-29T13:08:05.851Z,7.27
2022-11-29T13:10:36.640Z,8.60
2022-11-29T13:13:18.185Z,8.37
2022-11-29T13:15:56.728Z,8.87
2022-11-29T13:18:43.914Z,8.73
2022-11-29T13:21:22.882Z,8.93
2022-11-29T13:24:08.520Z,8.40
2022-11-29T13:26:37.715Z,8.70
2022-11-29T13:29:06.201Z,9.33
2022-11-29T13:31:33.454Z,9.17
2022-11-29T13:34:11.366Z,9.47
2022-11-29T13:37:02.115Z,9.80
2022-11-29T13:40:05.965Z,9.13
2022-11-29T13:42:45.279Z,9.07
2022-11-29T13:45:34.209Z,10.03
2022-11-29T13:48:02.176Z,9.40
2022-11-29T13:50:44.915Z,10.20
2022-11-29T13:53:21.447Z,9.93
2022-11-29T13:56:02.803Z,10.60
2022-11-29T13:58:29.223Z,9.63
2022-11-29T14:01:06.717Z,10.77
2022-11-29T14:03:39.520Z,10.30
2022-11-29T14:06:20.966Z,9.83
2022-11-29T14:11:42.810Z,9.87
2022-11-29T14:14:24.946Z,10.33
2022-11-29T14:17:03.443Z,9.47
2022-11-29T14:19:35.488Z,10.33
2022-11-29T14:22:01.870Z,10.40
2022-11-29T14:24:35.560Z,10.67
2022-11-29T14:27:14.180Z,10.67
2022-11-29T14:29:49.966Z,10.23
2022-11-29T14:32:28.592Z,10.57
2022-11-29T14:35:10.610Z,10.23
2022-11-29T14:37:58.863Z,11.03
2022-11-29T14:40:34.865Z,11.10
2022-11-29T14:43:05.356Z,11.30
2022-11-29T14:45:34.421Z,11.10
2022-11-29T14:48:01.701Z,11.23
2022-11-29T14:50:37.344Z,10.07
2022-11-29T14:53:07.082Z,11.47
2022-11-29T14:55:36.762Z,11.50
2022-11-29T14:58:03.985Z,11.77
2022-11-29T15:00:55.116Z,13.70
2022-11-29T15:03:36.775Z,12.63
2022-11-29T15:06:17.781Z,13.30
2022-11-29T15:08:55.629Z,12.77
2022-11-29T15:11:57.244Z,13.27
2022-11-29T15:14:46.281Z,12.50
2022-11-29T15:17:30.798Z,13.77
2022-11-29T15:20:21.853Z,12.90
2022-11-29T15:22:57.914Z,12.63
2022-11-29T15:25:28.353Z,12.03
2022-11-29T15:27:56.086Z,12.83
2022-11-29T15:30:28.797Z,12.27
2022-11-29T15:32:56.741Z,13.83
2022-11-29T15:35:23.542Z,12.97
2022-11-29T15:37:50.312Z,13.40
2022-11-29T15:40:21.832Z,12.73
2022-11-29T15:43:07.102Z,13.50
2022-11-29T15:45:36.168Z,14.07
2022-11-29T15:48:13.695Z,13.87
2022-11-29T15:50:49.832Z,13.53
2022-11-29T15:53:21.311Z,13.90
2022-11-29T15:55:50.557Z,13.77
2022-11-29T15:58:17.926Z,14.07
2022-11-29T16:00:49.652Z,14.80
2022-11-29T16:03:25.073Z,12.83
2022-11-29T16:06:20.703Z,14.13
2022-11-29T16:08:49.186Z,14.30
2022-11-29T16:11:20.210Z,13.80
2022-11-29T16:14:11.915Z,14.00
2022-11-29T16:16:40.232Z,13.33
2022-11-29T16:19:10.961Z,14.33
2022-11-29T16:21:37.577Z,13.67
2022-11-29T16:24:20.599Z,13.90
2022-11-29T16:26:49.591Z,12.43
2022-11-29T16:29:37.468Z,13.30
2022-11-29T16:32:24.681Z,13.30
2022-11-29T16:34:51.401Z,13.80
2022-11-29T16:37:22.115Z,13.73
2022-11-29T16:39:51.411Z,14.27
2022-11-29T16:42:26.205Z,14.43
2022-11-29T16:44:55.853Z,14.27
2022-11-29T16:47:24.840Z,14.30
2022-11-29T16:50:13.678Z,13.80
2022-11-29T16:52:40.217Z,13.33
2022-11-29T16:55:06.988Z,14.40
2022-11-29T16:57:33.607Z,15.13
2022-11-29T17:00:00.066Z,14.93
2022-11-29T17:02:29.272Z,14.50
2022-11-29T17:04:56.935Z,15.80
2022-11-29T17:07:30.229Z,15.80
2022-11-29T17:09:57.065Z,15.33
2022-11-29T17:12:23.573Z,15.93
2022-11-29T17:14:50.026Z,15.63
2022-11-29T17:17:18.917Z,16.37
2022-11-29T17:19:45.570Z,16.27
2022-11-29T17:22:12.627Z,16.03
2022-11-29T17:24:43.545Z,15.13
2022-11-29T17:27:14.090Z,15.63
2022-11-29T17:29:40.611Z,15.20
2022-11-29T17:32:07.132Z,14.77
2022-11-29T17:34:33.721Z,14.13
2022-11-29T17:37:00.122Z,14.77
2022-11-29T17:39:26.566Z,15.90
2022-11-29T17:41:53.053Z,15.40
2022-11-29T17:44:19.511Z,15.67
2022-11-29T17:46:46.215Z,15.87
2022-11-29T17:49:12.660Z,16.73
2022-11-29T17:51:55.925Z,16.37
2022-11-29T17:54:22.921Z,15.30
2022-11-29T17:56:49.705Z,16.87
2022-11-29T17:59:16.141Z,15.47
2022-11-29T18:01:42.687Z,14.97
2022-11-29T18:04:09.191Z,15.63
2022-11-29T18:06:40.304Z,14.20
2022-11-29T18:09:08.821Z,12.27
2022-11-29T18:11:45.303Z,13.47
2022-11-29T18:14:16.018Z,12.37
2022-11-29T18:16:42.609Z,11.43
2022-11-29T18:19:12.554Z,11.80
2022-11-29T18:21:39.059Z,10.90
2022-11-29T18:24:06.877Z,11.53
2022-11-29T18:26:34.936Z,11.27
2022-11-29T18:29:01.481Z,10.30
2022-11-29T18:31:30.382Z,11.23
2022-11-29T18:33:59.705Z,9.93
2022-11-29T18:36:29.016Z,9.90
2022-11-29T18:38:58.156Z,9.70
2022-11-29T18:41:25.935Z,9.63
2022-11-29T18:44:01.528Z,9.87
2022-11-29T18:46:36.709Z,9.60
2022-11-29T18:49:06.374Z,8.80
2022-11-29T18:51:34.106Z,9.30
2022-11-29T18:54:01.494Z,9.37
2022-11-29T18:56:30.437Z,9.70
2022-11-29T18:58:59.654Z,8.60
2022-11-29T19:01:29.964Z,9.93
2022-11-29T19:03:59.568Z,8.93
2022-11-29T19:06:37.363Z,9.33
2022-11-29T19:09:06.883Z,10.17
2022-11-29T19:11:34.445Z,10.17
2022-11-29T19:14:06.366Z,9.50
2022-11-29T19:16:34.449Z,9.73
2022-11-29T19:19:01.774Z,9.90
2022-11-29T19:21:31.832Z,9.00
2022-11-29T19:24:05.524Z,9.50
2022-11-29T19:26:33.492Z,8.87
2022-11-29T19:29:01.416Z,8.57
2022-11-29T19:31:28.476Z,8.73
2022-11-29T19:33:55.432Z,9.10
2022-11-29T19:36:24.659Z,9.90
2022-11-29T19:38:53.676Z,9.73
2022-11-29T19:41:26.680Z,10.30
2022-11-29T19:43:54.049Z,9.10
2022-11-29T19:46:23.919Z,10.37
2022-11-29T19:48:52.920Z,10.13
2022-11-29T19:51:20.307Z,9.70
2022-11-29T19:53:47.553Z,9.20
2022-11-29T19:56:16.391Z,9.63
2022-11-29T19:58:43.932Z,9.87
2022-11-29T20:01:16.265Z,9.60
2022-11-29T20:03:44.937Z,9.07
2022-11-29T20:06:13.728Z,9.90
2022-11-29T20:08:41.127Z,11.10
2022-11-29T20:11:09.914Z,11.93
2022-11-29T20:13:37.535Z,10.47
2022-11-29T20:16:05.964Z,9.67
2022-11-29T20:18:33.566Z,10.60
2022-11-29T20:21:05.424Z,10.47
2022-11-29T20:23:32.184Z,9.23
2022-11-29T20:25:58.872Z,9.37
2022-11-29T20:28:25.623Z,10.07
2022-11-29T20:31:05.356Z,10.60
2022-11-29T20:33:32.244Z,9.47
2022-11-29T20:36:35.909Z,9.77
2022-11-29T20:39:20.522Z,9.73
2022-11-29T20:41:52.902Z,10.53
2022-11-29T20:44:45.207Z,9.97
2022-11-29T20:47:18.112Z,11.47
2022-11-29T20:49:45.198Z,12.03
2022-11-29T20:52:37.061Z,12.43
2022-11-29T20:55:04.100Z,13.77
2022-11-29T20:57:30.510Z,13.73
2022-11-29T20:59:57.015Z,11.63
2022-11-29T21:02:24.648Z,12.73
2022-11-29T21:04:52.750Z,12.23
2022-11-29T21:07:19.195Z,12.20
2022-11-29T21:09:45.848Z,10.23
2022-11-29T21:12:12.820Z,10.03
2022-11-29T21:14:39.583Z,9.80
2022-11-29T21:17:06.557Z,9.70
2022-11-29T21:19:33.392Z,9.90
2022-11-29T21:22:19.757Z,10.30
2022-11-29T21:25:15.224Z,10.77
2022-11-29T21:27:41.936Z,9.30
2022-11-29T21:30:22.462Z,14.43
2022-11-29T21:32:49.524Z,17.33
2022-11-29T21:35:17.827Z,17.00
2022-11-29T21:37:44.817Z,17.10
2022-11-29T21:40:12.412Z,17.60
2022-11-29T21:42:39.030Z,17.27
2022-11-29T21:45:09.318Z,13.40
2022-11-29T21:47:41.275Z,12.47
2022-11-29T21:50:08.165Z,13.93
2022-11-29T21:52:34.730Z,13.17
2022-11-29T21:55:01.206Z,11.83
2022-11-29T21:57:27.630Z,11.77
2022-11-29T21:59:54.282Z,10.63
2022-11-29T22:02:21.110Z,10.60
2022-11-29T22:04:47.818Z,10.47
2022-11-29T22:07:14.501Z,11.00
2022-11-29T22:09:41.011Z,10.90
2022-11-29T22:12:31.823Z,10.10
2022-11-29T22:14:54.061Z,10.77
2022-11-29T22:17:20.516Z,9.83
2022-11-29T22:19:46.981Z,9.97
2022-11-29T22:22:14.352Z,10.67
2022-11-29T22:24:41.018Z,9.57
2022-11-29T22:27:07.469Z,9.67
2022-11-29T22:29:34.306Z,10.33
2022-11-29T22:32:01.196Z,10.87
2022-11-29T22:34:28.526Z,11.20
2022-11-29T22:36:55.667Z,11.07
2022-11-29T22:39:23.863Z,10.67
2022-11-29T22:41:54.328Z,12.53
2022-11-29T22:44:22.286Z,10.53
2022-11-29T22:46:48.783Z,9.87
2022-11-29T22:49:15.568Z,10.13
2022-11-29T22:51:42.350Z,10.93
2022-11-29T22:54:11.260Z,10.73
2022-11-29T22:56:40.466Z,10.90
2022-11-29T22:59:07.465Z,10.63
2022-11-29T23:01:36.246Z,12.00
2022-11-29T23:04:04.532Z,11.97
2022-11-29T23:06:40.096Z,12.27
2022-11-29T23:09:11.818Z,11.90
2022-11-29T23:11:38.730Z,12.43
2022-11-29T23:14:05.192Z,12.90
2022-11-29T23:16:32.747Z,12.77
2022-11-29T23:18:59.942Z,12.27
2022-11-29T23:21:32.049Z,13.13
2022-11-29T23:24:00.835Z,12.13
2022-11-29T23:26:31.189Z,12.87
2022-11-29T23:28:58.320Z,13.43
2022-11-29T23:31:25.071Z,15.97
2022-11-29T23:33:52.055Z,15.87
2022-11-29T23:36:18.973Z,18.33
2022-11-29T23:38:47.466Z,16.97
2022-11-29T23:41:14.414Z,19.07
2022-11-29T23:43:41.430Z,18.27
2022-11-29T23:46:16.694Z,15.87
2022-11-29T23:48:44.840Z,15.60
2022-11-29T23:51:11.693Z,16.50
2022-11-29T23:53:38.932Z,15.17
2022-11-29T23:56:08.541Z,14.63
2022-11-29T23:58:35.214Z,16.13
